sensor_id;sensor_type;location;lat;lon;timestamp;pressure;altitude;pressure_sealevel;temperature;humidity
19023;BME280;35226;48.606;8.858;2023-02-23T00:01:35;95922.47;;;8.18;100.00
19023;BME280;35226;48.606;8.858;2023-02-23T00:04:02;95930.91;;;8.11;100.00
19023;BME280;35226;48.606;8.858;2023-02-23T00:06:29;95924.50;;;8.02;100.00
19023;BME280;35226;48.606;8.858;2023-02-23T00:08:55;95923.63;;;8.05;100.00
19023;BME280;35226;48.606;8.858;2023-02-23T00:11:23;95927.78;;;7.97;100.00
19023;BME280;35226;48.606;8.858;2023-02-23T00:13:49;95927.13;;;7.93;100.00
19023;BME280;35226;48.606;8.858;2023-02-23T00:16:21;95927.63;;;7.88;100.00
19023;BME280;35226;48.606;8.858;2023-02-23T00:18:49;95936.44;;;7.83;100.00
19023;BME280;35226;48.606;8.858;2023-02-23T00:21:31;95925.53;;;7.79;100.00
19023;BME280;35226;48.606;8.858;2023-02-23T00:24:17;95924.84;;;7.75;100.00
19023;BME280;35226;48.606;8.858;2023-02-23T00:26:47;95926.81;;;7.74;100.00
19023;BME280;35226;48.606;8.858;2023-02-23T00:29:15;95925.28;;;7.73;100.00
19023;BME280;35226;48.606;8.858;2023-02-23T00:31:42;95918.25;;;7.72;100.00
19023;BME280;35226;48.606;8.858;2023-02-23T00:34:09;95928.13;;;7.70;100.00
19023;BME280;35226;48.606;8.858;2023-02-23T00:36:36;95920.72;;;7.67;100.00
19023;BME280;35226;48.606;8.858;2023-02-23T00:39:04;95920.94;;;7.60;100.00
19023;BME280;35226;48.606;8.858;2023-02-23T00:41:36;95919.03;;;7.57;100.00
19023;BME280;35226;48.606;8.858;2023-02-23T00:44:02;95920.00;;;7.50;100.00
19023;BME280;35226;48.606;8.858;2023-02-23T00:46:28;95923.59;;;7.47;100.00
19023;BME280;35226;48.606;8.858;2023-02-23T00:48:56;95918.81;;;7.51;100.00
19023;BME280;35226;48.606;8.858;2023-02-23T00:51:23;95924.09;;;7.58;100.00
19023;BME280;35226;48.606;8.858;2023-02-23T00:53:55;95927.63;;;7.59;100.00
19023;BME280;35226;48.606;8.858;2023-02-23T00:56:21;95924.53;;;7.57;100.00
19023;BME280;35226;48.606;8.858;2023-02-23T00:58:47;95926.44;;;7.60;100.00
19023;BME280;35226;48.606;8.858;2023-02-23T01:01:14;95921.34;;;7.58;100.00
19023;BME280;35226;48.606;8.858;2023-02-23T01:03:41;95922.69;;;7.54;100.00
19023;BME280;35226;48.606;8.858;2023-02-23T01:06:10;95920.00;;;7.50;100.00
19023;BME280;35226;48.606;8.858;2023-02-23T01:08:40;95914.75;;;7.56;100.00
19023;BME280;35226;48.606;8.858;2023-02-23T01:11:07;95911.75;;;7.50;100.00
19023;BME280;35226;48.606;8.858;2023-02-23T01:13:35;95916.72;;;7.55;100.00
19023;BME280;35226;48.606;8.858;2023-02-23T01:16:09;95920.25;;;7.56;100.00
19023;BME280;35226;48.606;8.858;2023-02-23T01:18:36;95927.41;;;7.53;100.00
19023;BME280;35226;48.606;8.858;2023-02-23T01:21:03;95916.41;;;7.53;100.00
19023;BME280;35226;48.606;8.858;2023-02-23T01:23:31;95916.97;;;7.61;100.00
19023;BME280;35226;48.606;8.858;2023-02-23T01:25:56;95919.22;;;7.50;100.00
19023;BME280;35226;48.606;8.858;2023-02-23T01:28:23;95923.41;;;7.54;100.00
19023;BME280;35226;48.606;8.858;2023-02-23T01:30:48;95915.72;;;7.49;100.00
19023;BME280;35226;48.606;8.858;2023-02-23T01:33:14;95916.41;;;7.53;100.00
19023;BME280;35226;48.606;8.858;2023-02-23T01:35:39;95904.78;;;7.46;100.00
19023;BME280;35226;48.606;8.858;2023-02-23T01:38:05;95906.19;;;7.54;100.00
19023;BME280;35226;48.606;8.858;2023-02-23T01:40:31;95904.53;;;7.56;100.00
19023;BME280;35226;48.606;8.858;2023-02-23T01:43:12;95905.56;;;7.46;100.00
19023;BME280;35226;48.606;8.858;2023-02-23T01:45:42;95910.03;;;7.56;100.00
19023;BME280;35226;48.606;8.858;2023-02-23T01:48:14;95909.44;;;7.49;100.00
19023;BME280;35226;48.606;8.858;2023-02-23T01:50:46;95908.84;;;7.41;100.00
19023;BME280;35226;48.606;8.858;2023-02-23T01:53:13;95903.16;;;7.48;100.00
19023;BME280;35226;48.606;8.858;2023-02-23T01:55:40;95909.78;;;7.51;100.00
19023;BME280;35226;48.606;8.858;2023-02-23T01:58:13;95908.94;;;7.54;100.00
19023;BME280;35226;48.606;8.858;2023-02-23T02:00:43;95905.56;;;7.46;100.00
19023;BME280;35226;48.606;8.858;2023-02-23T02:03:16;95911.06;;;7.46;100.00
19023;BME280;35226;48.606;8.858;2023-02-23T02:05:47;95907.91;;;7.48;100.00
19023;BME280;35226;48.606;8.858;2023-02-23T02:08:15;95910.63;;;7.48;100.00
19023;BME280;35226;48.606;8.858;2023-02-23T02:10:43;95906.00;;;7.44;100.00
19023;BME280;35226;48.606;8.858;2023-02-23T02:13:15;95897.25;;;7.50;100.00
19023;BME280;35226;48.606;8.858;2023-02-23T02:36:13;95895.13;;;7.41;100.00
19023;BME280;35226;48.606;8.858;2023-02-23T02:41:06;95897.59;;;7.35;100.00
19023;BME280;35226;48.606;8.858;2023-02-23T02:43:57;95888.50;;;7.38;100.00
19023;BME280;35226;48.606;8.858;2023-02-23T02:46:37;95897.19;;;7.37;100.00
19023;BME280;35226;48.606;8.858;2023-02-23T02:49:06;95896.75;;;7.38;100.00
19023;BME280;35226;48.606;8.858;2023-02-23T02:56:51;95881.59;;;7.47;100.00
19023;BME280;35226;48.606;8.858;2023-02-23T02:59:23;95877.31;;;7.46;100.00
19023;BME280;35226;48.606;8.858;2023-02-23T03:02:17;95877.28;;;7.33;100.00
19023;BME280;35226;48.606;8.858;2023-02-23T03:05:11;95885.84;;;7.35;100.00
19023;BME280;35226;48.606;8.858;2023-02-23T03:11:10;95883.78;;;7.39;100.00
19023;BME280;35226;48.606;8.858;2023-02-23T03:17:04;95884.47;;;7.43;100.00
19023;BME280;35226;48.606;8.858;2023-02-23T03:20:02;95877.78;;;7.44;100.00
19023;BME280;35226;48.606;8.858;2023-02-23T03:28:36;95886.88;;;7.41;100.00
19023;BME280;35226;48.606;8.858;2023-02-23T03:31:38;95891.00;;;7.33;100.00
19023;BME280;35226;48.606;8.858;2023-02-23T03:34:43;95881.88;;;7.36;100.00
19023;BME280;35226;48.606;8.858;2023-02-23T03:37:38;95880.94;;;7.42;100.00
19023;BME280;35226;48.606;8.858;2023-02-23T03:40:28;95886.75;;;7.44;100.00
19023;BME280;35226;48.606;8.858;2023-02-23T03:43:18;95879.59;;;7.34;100.00
19023;BME280;35226;48.606;8.858;2023-02-23T03:46:08;95888.00;;;7.43;100.00
19023;BME280;35226;48.606;8.858;2023-02-23T03:48:54;95886.75;;;7.44;100.00
19023;BME280;35226;48.606;8.858;2023-02-23T03:51:41;95884.47;;;7.43;100.00
19023;BME280;35226;48.606;8.858;2023-02-23T03:54:39;95889.34;;;7.35;100.00
19023;BME280;35226;48.606;8.858;2023-02-23T03:57:28;95887.16;;;7.30;100.00
19023;BME280;35226;48.606;8.858;2023-02-23T04:00:20;95894.44;;;7.37;100.00
19023;BME280;35226;48.606;8.858;2023-02-23T04:03:08;95892.38;;;7.41;100.00
19023;BME280;35226;48.606;8.858;2023-02-23T04:05:55;95893.56;;;7.40;100.00
19023;BME280;35226;48.606;8.858;2023-02-23T04:08:40;95887.31;;;7.39;100.00
19023;BME280;35226;48.606;8.858;2023-02-23T04:14:37;95892.44;;;7.37;100.00
19023;BME280;35226;48.606;8.858;2023-02-23T04:17:05;95894.53;;;7.33;100.00
19023;BME280;35226;48.606;8.858;2023-02-23T04:19:31;95897.72;;;7.32;100.00
19023;BME280;35226;48.606;8.858;2023-02-23T04:21:57;95899.75;;;7.28;100.00
19023;BME280;35226;48.606;8.858;2023-02-23T04:24:22;95895.81;;;7.29;100.00
19023;BME280;35226;48.606;8.858;2023-02-23T04:26:48;95891.38;;;7.19;100.00
19023;BME280;35226;48.606;8.858;2023-02-23T04:29:14;95897.63;;;7.19;100.00
19023;BME280;35226;48.606;8.858;2023-02-23T04:31:39;95896.44;;;7.20;100.00
19023;BME280;35226;48.606;8.858;2023-02-23T04:34:06;95899.09;;;7.24;100.00
19023;BME280;35226;48.606;8.858;2023-02-23T04:36:32;95904.50;;;7.27;100.00
19023;BME280;35226;48.606;8.858;2023-02-23T04:38:57;95909.75;;;7.22;100.00
19023;BME280;35226;48.606;8.858;2023-02-23T04:41:23;95908.97;;;7.21;100.00
19023;BME280;35226;48.606;8.858;2023-02-23T04:43:48;95908.53;;;7.23;100.00
19023;BME280;35226;48.606;8.858;2023-02-23T04:46:14;95916.50;;;7.17;100.00
19023;BME280;35226;48.606;8.858;2023-02-23T04:48:39;95911.91;;;7.14;100.00
19023;BME280;35226;48.606;8.858;2023-02-23T04:51:05;95915.94;;;7.10;100.00
19023;BME280;35226;48.606;8.858;2023-02-23T04:53:31;95919.53;;;7.06;100.00
19023;BME280;35226;48.606;8.858;2023-02-23T04:55:57;95919.19;;;7.04;100.00
19023;BME280;35226;48.606;8.858;2023-02-23T04:58:22;95912.75;;;7.11;100.00
19023;BME280;35226;48.606;8.858;2023-02-23T05:00:48;95907.69;;;7.10;100.00
19023;BME280;35226;48.606;8.858;2023-02-23T05:03:14;95902.97;;;7.10;100.00
19023;BME280;35226;48.606;8.858;2023-02-23T05:05:42;95911.97;;;7.11;100.00
19023;BME280;35226;48.606;8.858;2023-02-23T05:08:08;95908.09;;;7.08;100.00
19023;BME280;35226;48.606;8.858;2023-02-23T05:10:34;95908.47;;;7.10;100.00
19023;BME280;35226;48.606;8.858;2023-02-23T05:12:59;95911.19;;;7.10;100.00
19023;BME280;35226;48.606;8.858;2023-02-23T05:15:26;95912.94;;;7.04;100.00
19023;BME280;35226;48.606;8.858;2023-02-23T05:17:53;95917.81;;;6.96;100.00
19023;BME280;35226;48.606;8.858;2023-02-23T05:20:19;95912.06;;;7.07;100.00
19023;BME280;35226;48.606;8.858;2023-02-23T05:22:44;95914.03;;;7.06;100.00
19023;BME280;35226;48.606;8.858;2023-02-23T05:25:10;95911.88;;;6.98;100.00
19023;BME280;35226;48.606;8.858;2023-02-23T05:27:36;95910.63;;;7.02;100.00
19023;BME280;35226;48.606;8.858;2023-02-23T05:30:04;95911.03;;;7.01;100.00
19023;BME280;35226;48.606;8.858;2023-02-23T05:32:30;95907.53;;;7.00;100.00
19023;BME280;35226;48.606;8.858;2023-02-23T05:34:55;95908.63;;;7.03;100.00
19023;BME280;35226;48.606;8.858;2023-02-23T05:37:21;95910.34;;;6.97;100.00
19023;BME280;35226;48.606;8.858;2023-02-23T05:39:46;95907.94;;;6.99;100.00
19023;BME280;35226;48.606;8.858;2023-02-23T05:42:12;95911.88;;;6.98;100.00
19023;BME280;35226;48.606;8.858;2023-02-23T05:44:37;95911.47;;;6.99;100.00
19023;BME280;35226;48.606;8.858;2023-02-23T05:47:03;95916.19;;;6.99;100.00
19023;BME280;35226;48.606;8.858;2023-02-23T05:49:28;95914.63;;;6.98;100.00
19023;BME280;35226;48.606;8.858;2023-02-23T05:51:54;95910.34;;;6.97;100.00
19023;BME280;35226;48.606;8.858;2023-02-23T05:54:19;95921.06;;;6.91;100.00
19023;BME280;35226;48.606;8.858;2023-02-23T05:56:45;95922.28;;;6.90;100.00
19023;BME280;35226;48.606;8.858;2023-02-23T05:59:10;95931.72;;;6.89;100.00
19023;BME280;35226;48.606;8.858;2023-02-23T06:01:37;95928.63;;;6.87;100.00
19023;BME280;35226;48.606;8.858;2023-02-23T06:04:03;95921.75;;;6.79;100.00
19023;BME280;35226;48.606;8.858;2023-02-23T06:06:29;95924.00;;;6.84;100.00
19023;BME280;35226;48.606;8.858;2023-02-23T06:08:55;95926.28;;;6.86;100.00
19023;BME280;35226;48.606;8.858;2023-02-23T06:11:21;95915.00;;;6.84;100.00
19023;BME280;35226;48.606;8.858;2023-02-23T06:13:46;95923.28;;;6.80;100.00
19023;BME280;35226;48.606;8.858;2023-02-23T06:16:12;95921.69;;;6.83;100.00
19023;BME280;35226;48.606;8.858;2023-02-23T06:18:38;95923.28;;;6.80;100.00
19023;BME280;35226;48.606;8.858;2023-02-23T06:21:04;95933.50;;;6.80;100.00
19023;BME280;35226;48.606;8.858;2023-02-23T06:23:30;95932.84;;;6.76;100.00
19023;BME280;35226;48.606;8.858;2023-02-23T06:25:56;95931.34;;;6.71;100.00
19023;BME280;35226;48.606;8.858;2023-02-23T06:28:24;95939.25;;;6.69;100.00
19023;BME280;35226;48.606;8.858;2023-02-23T06:30:53;95934.16;;;6.67;100.00
19023;BME280;35226;48.606;8.858;2023-02-23T06:33:19;95938.03;;;6.70;100.00
19023;BME280;35226;48.606;8.858;2023-02-23T06:35:46;95942.75;;;6.69;100.00
19023;BME280;35226;48.606;8.858;2023-02-23T06:38:11;95947.06;;;6.71;100.00
19023;BME280;35226;48.606;8.858;2023-02-23T06:40:38;95946.28;;;6.70;100.00
19023;BME280;35226;48.606;8.858;2023-02-23T06:43:04;95950.31;;;6.65;100.00
19023;BME280;35226;48.606;8.858;2023-02-23T06:45:30;95943.41;;;6.57;100.00
19023;BME280;35226;48.606;8.858;2023-02-23T06:47:59;95950.38;;;6.62;100.00
19023;BME280;35226;48.606;8.858;2023-02-23T06:50:25;95954.88;;;6.72;100.00
19023;BME280;35226;48.606;8.858;2023-02-23T06:52:51;95956.41;;;6.73;100.00
19023;BME280;35226;48.606;8.858;2023-02-23T06:55:17;95962.59;;;6.77;100.00
19023;BME280;35226;48.606;8.858;2023-02-23T06:57:42;95968.94;;;6.74;100.00
19023;BME280;35226;48.606;8.858;2023-02-23T07:00:10;95973.22;;;6.75;100.00
19023;BME280;35226;48.606;8.858;2023-02-23T07:02:40;95975.97;;;6.75;100.00
19023;BME280;35226;48.606;8.858;2023-02-23T07:05:07;95968.75;;;6.65;100.00
19023;BME280;35226;48.606;8.858;2023-02-23T07:07:32;95972.75;;;6.60;100.00
19023;BME280;35226;48.606;8.858;2023-02-23T07:09:58;95978.09;;;6.67;100.00
19023;BME280;35226;48.606;8.858;2023-02-23T07:12:24;95984.72;;;6.70;100.00
19023;BME280;35226;48.606;8.858;2023-02-23T07:14:49;95980.75;;;6.71;100.00
19023;BME280;35226;48.606;8.858;2023-02-23T07:17:15;95983.16;;;6.69;100.00
19023;BME280;35226;48.606;8.858;2023-02-23T07:19:42;95980.75;;;6.71;100.00
19023;BME280;35226;48.606;8.858;2023-02-23T07:22:08;95992.00;;;6.77;100.00
19023;BME280;35226;48.606;8.858;2023-02-23T07:24:33;95995.53;;;6.77;100.00
19023;BME280;35226;48.606;8.858;2023-02-23T07:26:59;95995.47;;;6.81;100.00
19023;BME280;35226;48.606;8.858;2023-02-23T07:29:24;95994.31;;;6.78;100.00
19023;BME280;35226;48.606;8.858;2023-02-23T07:31:53;95998.19;;;6.81;100.00
19023;BME280;35226;48.606;8.858;2023-02-23T07:34:19;95996.94;;;6.85;100.00
19023;BME280;35226;48.606;8.858;2023-02-23T07:36:44;95996.16;;;6.85;100.00
19023;BME280;35226;48.606;8.858;2023-02-23T07:39:10;95999.59;;;6.89;100.00
19023;BME280;35226;48.606;8.858;2023-02-23T07:41:36;95997.97;;;6.91;100.00
19023;BME280;35226;48.606;8.858;2023-02-23T07:44:01;96000.66;;;6.95;100.00
19023;BME280;35226;48.606;8.858;2023-02-23T07:46:27;95996.19;;;7.01;100.00
19023;BME280;35226;48.606;8.858;2023-02-23T07:48:52;96000.81;;;7.04;100.00
19023;BME280;35226;48.606;8.858;2023-02-23T07:51:18;95996.44;;;7.06;100.00
19023;BME280;35226;48.606;8.858;2023-02-23T07:53:44;95994.75;;;7.13;100.00
19023;BME280;35226;48.606;8.858;2023-02-23T07:56:11;95994.31;;;7.14;100.00
19023;BME280;35226;48.606;8.858;2023-02-23T07:58:41;95998.84;;;7.21;100.00
19023;BME280;35226;48.606;8.858;2023-02-23T08:01:09;96001.84;;;7.26;100.00
19023;BME280;35226;48.606;8.858;2023-02-23T08:03:35;96005.72;;;7.29;100.00
19023;BME280;35226;48.606;8.858;2023-02-23T08:06:01;95997.84;;;7.31;100.00
19023;BME280;35226;48.606;8.858;2023-02-23T08:08:27;96000.94;;;7.33;100.00
19023;BME280;35226;48.606;8.858;2023-02-23T08:11:04;96005.53;;;7.36;100.00
19023;BME280;35226;48.606;8.858;2023-02-23T08:13:30;96002.66;;;7.43;100.00
19023;BME280;35226;48.606;8.858;2023-02-23T08:15:57;96004.78;;;7.52;100.00
19023;BME280;35226;48.606;8.858;2023-02-23T08:18:23;95996.44;;;7.55;100.00
19023;BME280;35226;48.606;8.858;2023-02-23T08:20:49;95999.28;;;7.52;100.00
19023;BME280;35226;48.606;8.858;2023-02-23T08:23:14;95998.75;;;7.57;100.00
19023;BME280;35226;48.606;8.858;2023-02-23T08:25:42;95996.78;;;7.57;100.00
19023;BME280;35226;48.606;8.858;2023-02-23T08:28:08;96002.19;;;7.61;100.00
19023;BME280;35226;48.606;8.858;2023-02-23T08:30:33;96004.84;;;7.64;100.00
19023;BME280;35226;48.606;8.858;2023-02-23T08:32:59;96002.38;;;7.70;100.00
19023;BME280;35226;48.606;8.858;2023-02-23T08:35:26;96004.56;;;7.75;100.00
19023;BME280;35226;48.606;8.858;2023-02-23T08:37:52;96000.78;;;7.85;100.00
19023;BME280;35226;48.606;8.858;2023-02-23T08:40:17;96000.63;;;7.92;100.00
19023;BME280;35226;48.606;8.858;2023-02-23T08:42:45;95996.69;;;8.06;100.00
19023;BME280;35226;48.606;8.858;2023-02-23T08:45:13;95994.34;;;8.21;100.00
19023;BME280;35226;48.606;8.858;2023-02-23T08:47:39;95990.00;;;8.36;100.00
19023;BME280;35226;48.606;8.858;2023-02-23T08:50:05;95995.75;;;8.41;100.00
19023;BME280;35226;48.606;8.858;2023-02-23T08:52:31;95988.88;;;8.33;100.00
19023;BME280;35226;48.606;8.858;2023-02-23T08:54:57;95990.63;;;8.27;100.00
19023;BME280;35226;48.606;8.858;2023-02-23T08:57:22;95987.38;;;8.32;100.00
19023;BME280;35226;48.606;8.858;2023-02-23T08:59:48;95984.88;;;8.50;100.00
19023;BME280;35226;48.606;8.858;2023-02-23T09:02:14;95989.50;;;8.53;100.00
19023;BME280;35226;48.606;8.858;2023-02-23T09:04:40;95990.06;;;8.74;100.00
19023;BME280;35226;48.606;8.858;2023-02-23T09:07:07;95984.03;;;8.79;100.00
19023;BME280;35226;48.606;8.858;2023-02-23T09:09:33;95991.31;;;8.85;100.00
19023;BME280;35226;48.606;8.858;2023-02-23T09:11:59;95985.25;;;8.90;100.00
19023;BME280;35226;48.606;8.858;2023-02-23T09:14:25;95981.63;;;8.94;100.00
19023;BME280;35226;48.606;8.858;2023-02-23T09:16:51;95986.03;;;8.91;100.00
19023;BME280;35226;48.606;8.858;2023-02-23T09:19:16;95994.09;;;8.98;100.00
19023;BME280;35226;48.606;8.858;2023-02-23T09:21:43;95979.84;;;9.12;100.00
19023;BME280;35226;48.606;8.858;2023-02-23T09:24:08;95978.53;;;9.30;100.00
19023;BME280;35226;48.606;8.858;2023-02-23T09:26:34;95982.38;;;9.32;100.00
19023;BME280;35226;48.606;8.858;2023-02-23T09:29:05;95986.03;;;9.29;100.00
19023;BME280;35226;48.606;8.858;2023-02-23T09:31:31;95982.16;;;9.39;100.00
19023;BME280;35226;48.606;8.858;2023-02-23T09:33:58;95982.97;;;9.61;100.00
19023;BME280;35226;48.606;8.858;2023-02-23T09:36:28;95979.31;;;9.77;100.00
19023;BME280;35226;48.606;8.858;2023-02-23T09:38:56;95971.53;;;9.97;100.00
19023;BME280;35226;48.606;8.858;2023-02-23T09:49:04;95964.94;;;10.17;100.00
19023;BME280;35226;48.606;8.858;2023-02-23T09:51:39;95967.81;;;10.13;100.00
19023;BME280;35226;48.606;8.858;2023-02-23T09:54:09;95970.41;;;10.29;100.00
19023;BME280;35226;48.606;8.858;2023-02-23T09:56:38;95969.00;;;10.25;100.00
19023;BME280;35226;48.606;8.858;2023-02-23T09:59:06;95968.81;;;10.41;100.00
19023;BME280;35226;48.606;8.858;2023-02-23T10:12:36;95967.16;;;10.44;100.00
19023;BME280;35226;48.606;8.858;2023-02-23T10:15:19;95969.19;;;10.52;100.00
19023;BME280;35226;48.606;8.858;2023-02-23T10:21:07;95965.31;;;10.71;100.00
19023;BME280;35226;48.606;8.858;2023-02-23T10:23:42;95966.84;;;10.72;100.00
19023;BME280;35226;48.606;8.858;2023-02-23T10:26:21;95971.94;;;10.74;100.00
19023;BME280;35226;48.606;8.858;2023-02-23T10:28:48;95970.59;;;10.88;100.00
19023;BME280;35226;48.606;8.858;2023-02-23T10:31:44;95965.56;;;10.86;100.00
19023;BME280;35226;48.606;8.858;2023-02-23T10:34:15;95964.66;;;10.98;100.00
19023;BME280;35226;48.606;8.858;2023-02-23T10:39:15;95970.66;;;10.97;100.00
19023;BME280;35226;48.606;8.858;2023-02-23T10:41:41;95963.06;;;11.19;100.00
19023;BME280;35226;48.606;8.858;2023-02-23T10:44:17;95962.06;;;10.95;100.00
19023;BME280;35226;48.606;8.858;2023-02-23T10:46:45;95965.84;;;11.28;100.00
19023;BME280;35226;48.606;8.858;2023-02-23T10:49:18;95954.00;;;11.19;100.00
19023;BME280;35226;48.606;8.858;2023-02-23T10:51:47;95953.97;;;11.09;100.00
19023;BME280;35226;48.606;8.858;2023-02-23T10:54:46;95954.75;;;11.10;100.00
19023;BME280;35226;48.606;8.858;2023-02-23T10:57:38;95954.91;;;11.06;100.00
19023;BME280;35226;48.606;8.858;2023-02-23T11:02:30;95945.38;;;11.17;100.00
19023;BME280;35226;48.606;8.858;2023-02-23T11:04:58;95947.16;;;11.41;100.00
19023;BME280;35226;48.606;8.858;2023-02-23T11:07:27;95948.06;;;11.38;100.00
19023;BME280;35226;48.606;8.858;2023-02-23T11:09:59;95953.81;;;11.53;100.00
19023;BME280;35226;48.606;8.858;2023-02-23T11:12:35;95942.66;;;11.84;100.00
19023;BME280;35226;48.606;8.858;2023-02-23T11:17:58;95943.97;;;11.70;100.00
19023;BME280;35226;48.606;8.858;2023-02-23T11:20:32;95939.13;;;12.02;100.00
19023;BME280;35226;48.606;8.858;2023-02-23T11:23:16;95930.34;;;12.12;100.00
19023;BME280;35226;48.606;8.858;2023-02-23T11:25:44;95934.47;;;12.17;100.00
19023;BME280;35226;48.606;8.858;2023-02-23T11:28:39;95936.00;;;12.45;100.00
19023;BME280;35226;48.606;8.858;2023-02-23T11:31:15;95931.72;;;12.17;100.00
19023;BME280;35226;48.606;8.858;2023-02-23T11:33:43;95925.59;;;12.13;100.00
19023;BME280;35226;48.606;8.858;2023-02-23T11:38:43;95925.72;;;12.09;100.00
19023;BME280;35226;48.606;8.858;2023-02-23T11:41:21;95920.50;;;12.11;100.00
19023;BME280;35226;48.606;8.858;2023-02-23T11:43:55;95928.81;;;12.02;100.00
19023;BME280;35226;48.606;8.858;2023-02-23T11:46:22;95913.56;;;12.07;100.00
19023;BME280;35226;48.606;8.858;2023-02-23T11:48:51;95915.25;;;11.95;100.00
19023;BME280;35226;48.606;8.858;2023-02-23T11:51:34;95913.13;;;11.81;100.00
19023;BME280;35226;48.606;8.858;2023-02-23T11:54:01;95914.03;;;11.87;100.00
19023;BME280;35226;48.606;8.858;2023-02-23T11:56:29;95916.66;;;11.81;100.00
19023;BME280;35226;48.606;8.858;2023-02-23T11:59:16;95920.50;;;11.75;100.00
19023;BME280;35226;48.606;8.858;2023-02-23T12:01:46;95909.44;;;11.75;100.00
19023;BME280;35226;48.606;8.858;2023-02-23T12:06:50;95909.69;;;11.68;100.00
19023;BME280;35226;48.606;8.858;2023-02-23T12:09:23;95904.63;;;11.66;100.00
19023;BME280;35226;48.606;8.858;2023-02-23T12:12:01;95906.78;;;11.62;100.00
19023;BME280;35226;48.606;8.858;2023-02-23T12:14:39;95911.41;;;11.65;100.00
19023;BME280;35226;48.606;8.858;2023-02-23T12:17:15;95911.84;;;11.64;100.00
19023;BME280;35226;48.606;8.858;2023-02-23T12:19:46;95908.00;;;11.61;100.00
19023;BME280;35226;48.606;8.858;2023-02-23T12:22:50;95906.16;;;11.58;100.00
19023;BME280;35226;48.606;8.858;2023-02-23T12:25:24;95902.59;;;11.58;100.00
19023;BME280;35226;48.606;8.858;2023-02-23T12:28:10;95898.16;;;11.60;100.00
19023;BME280;35226;48.606;8.858;2023-02-23T12:30:43;95901.69;;;11.61;100.00
19023;BME280;35226;48.606;8.858;2023-02-23T12:33:32;95901.84;;;11.66;100.00
19023;BME280;35226;48.606;8.858;2023-02-23T12:39:02;95904.16;;;11.68;100.00
19023;BME280;35226;48.606;8.858;2023-02-23T12:41:37;95900.78;;;11.64;100.00
19023;BME280;35226;48.606;8.858;2023-02-23T12:47:19;95892.94;;;11.53;100.00
19023;BME280;35226;48.606;8.858;2023-02-23T12:49:51;95894.31;;;11.67;100.00
19023;BME280;35226;48.606;8.858;2023-02-23T12:52:31;95886.78;;;11.49;100.00
19023;BME280;35226;48.606;8.858;2023-02-23T12:54:58;95890.50;;;11.64;100.00
19023;BME280;35226;48.606;8.858;2023-02-23T12:57:34;95893.25;;;11.55;100.00
19023;BME280;35226;48.606;8.858;2023-02-23T13:00:19;95884.63;;;11.53;100.00
19023;BME280;35226;48.606;8.858;2023-02-23T13:03:21;95889.41;;;11.53;100.00
19023;BME280;35226;48.606;8.858;2023-02-23T13:11:25;95884.91;;;11.37;100.00
19023;BME280;35226;48.606;8.858;2023-02-23T13:16:50;95883.97;;;11.31;100.00
19023;BME280;35226;48.606;8.858;2023-02-23T13:21:50;95890.84;;;11.17;100.00
19023;BME280;35226;48.606;8.858;2023-02-23T13:24:23;95892.38;;;11.09;100.00
19023;BME280;35226;48.606;8.858;2023-02-23T13:26:58;95898.97;;;11.02;100.00
19023;BME280;35226;48.606;8.858;2023-02-23T13:31:58;95897.25;;;10.96;100.00
19023;BME280;35226;48.606;8.858;2023-02-23T13:34:39;95900.03;;;10.96;100.00
19023;BME280;35226;48.606;8.858;2023-02-23T13:37:07;95892.97;;;10.95;100.00
19023;BME280;35226;48.606;8.858;2023-02-23T13:47:57;95888.50;;;10.97;100.00
19023;BME280;35226;48.606;8.858;2023-02-23T13:56:25;95886.06;;;11.08;100.00
19023;BME280;35226;48.606;8.858;2023-02-23T13:59:02;95880.41;;;11.12;100.00
19023;BME280;35226;48.606;8.858;2023-02-23T14:01:39;95880.84;;;11.01;100.00
19023;BME280;35226;48.606;8.858;2023-02-23T14:04:20;95880.09;;;11.10;100.00
19023;BME280;35226;48.606;8.858;2023-02-23T14:09:55;95873.22;;;11.15;100.00
19023;BME280;35226;48.606;8.858;2023-02-23T14:12:23;95873.97;;;11.06;100.00
19023;BME280;35226;48.606;8.858;2023-02-23T14:14:50;95864.41;;;11.07;100.00
19023;BME280;35226;48.606;8.858;2023-02-23T14:22:33;95863.53;;;11.19;100.00
19023;BME280;35226;48.606;8.858;2023-02-23T14:28:01;95858.63;;;11.14;100.00
19023;BME280;35226;48.606;8.858;2023-02-23T14:30:48;95855.81;;;11.05;100.00
19023;BME280;35226;48.606;8.858;2023-02-23T14:36:00;95863.97;;;11.08;100.00
19023;BME280;35226;48.606;8.858;2023-02-23T14:38:31;95863.97;;;11.08;100.00
19023;BME280;35226;48.606;8.858;2023-02-23T14:41:00;95856.44;;;11.09;100.00
19023;BME280;35226;48.606;8.858;2023-02-23T14:46:02;95867.34;;;11.12;100.00
19023;BME280;35226;48.606;8.858;2023-02-23T14:48:33;95866.59;;;11.12;100.00
19023;BME280;35226;48.606;8.858;2023-02-23T14:51:22;95868.59;;;11.21;100.00
19023;BME280;35226;48.606;8.858;2023-02-23T14:53:48;95867.81;;;11.11;100.00
19023;BME280;35226;48.606;8.858;2023-02-23T14:56:19;95868.28;;;11.19;100.00
19023;BME280;35226;48.606;8.858;2023-02-23T14:58:50;95869.22;;;11.16;100.00
19023;BME280;35226;48.606;8.858;2023-02-23T15:01:36;95869.81;;;11.20;100.00
19023;BME280;35226;48.606;8.858;2023-02-23T15:04:11;95864.16;;;11.14;100.00
19023;BME280;35226;48.606;8.858;2023-02-23T15:06:39;95867.78;;;11.02;100.00
19023;BME280;35226;48.606;8.858;2023-02-23T15:09:16;95864.88;;;10.96;100.00
19023;BME280;35226;48.606;8.858;2023-02-23T15:11:43;95865.31;;;10.95;100.00
19023;BME280;35226;48.606;8.858;2023-02-23T15:14:14;95868.56;;;11.02;100.00
19023;BME280;35226;48.606;8.858;2023-02-23T15:16:41;95864.41;;;11.07;100.00
19023;BME280;35226;48.606;8.858;2023-02-23T15:19:15;95863.19;;;11.08;100.00
19023;BME280;35226;48.606;8.858;2023-02-23T15:21:51;95869.81;;;11.10;100.00
19023;BME280;35226;48.606;8.858;2023-02-23T15:24:22;95875.00;;;11.08;100.00
19023;BME280;35226;48.606;8.858;2023-02-23T15:26:49;95870.41;;;11.05;100.00